Terminal Aerodrome Forecast
Issued by NWS Wilmington, OH

Home | Current Version | Previous Version | Text Only | Print | Product List | Glossary On
Versions: 1 2 3 4 5 6 7 8 9 10 11 12 13 14 15 16 17 18 19 20 21 22 23 24 25 26
546
FTUS41 KILN 300522
TAFCMH
TAF
KCMH 300522Z 3006/3106 VRB04KT P6SM -SHRA FEW050 BKN150
     FM300700 00000KT 4SM BR SCT002
     FM301300 23005KT P6SM FEW020
     FM301700 24006KT P6SM VCTS SCT035CB BKN250
     FM310000 24002KT P6SM FEW040=

USA.gov is the U.S. government's official web portal to all federal, state and local government web resources and services.